sensor_id;sensor_type;location;lat;lon;timestamp;P1;durP1;ratioP1;P2;durP2;ratioP2
64387;SDS011;50709;52.648;4.764;2023-12-04T00:01:27;17.58;;;9.38;;
64387;SDS011;50709;52.648;4.764;2023-12-04T00:10:36;19.10;;;9.55;;
64387;SDS011;50709;52.648;4.764;2023-12-04T00:13:02;21.80;;;9.75;;
64387;SDS011;50709;52.648;4.764;2023-12-04T00:15:27;19.48;;;10.43;;
64387;SDS011;50709;52.648;4.764;2023-12-04T00:17:52;18.10;;;9.63;;
64387;SDS011;50709;52.648;4.764;2023-12-04T00:20:18;18.52;;;9.80;;
64387;SDS011;50709;52.648;4.764;2023-12-04T00:22:43;20.45;;;9.30;;
64387;SDS011;50709;52.648;4.764;2023-12-04T00:25:08;19.40;;;10.10;;
64387;SDS011;50709;52.648;4.764;2023-12-04T00:27:34;18.20;;;9.57;;
64387;SDS011;50709;52.648;4.764;2023-12-04T00:29:59;16.92;;;9.18;;
64387;SDS011;50709;52.648;4.764;2023-12-04T00:32:24;17.55;;;8.70;;
64387;SDS011;50709;52.648;4.764;2023-12-04T00:34:50;18.75;;;10.18;;
64387;SDS011;50709;52.648;4.764;2023-12-04T00:37:15;20.60;;;10.23;;
64387;SDS011;50709;52.648;4.764;2023-12-04T00:39:41;22.63;;;10.52;;
64387;SDS011;50709;52.648;4.764;2023-12-04T00:42:06;20.98;;;9.75;;
64387;SDS011;50709;52.648;4.764;2023-12-04T00:44:31;15.18;;;7.93;;
64387;SDS011;50709;52.648;4.764;2023-12-04T00:46:57;20.85;;;9.50;;
64387;SDS011;50709;52.648;4.764;2023-12-04T00:49:22;16.88;;;8.65;;
64387;SDS011;50709;52.648;4.764;2023-12-04T00:51:48;19.67;;;8.82;;
64387;SDS011;50709;52.648;4.764;2023-12-04T00:54:13;18.45;;;9.23;;
64387;SDS011;50709;52.648;4.764;2023-12-04T00:56:39;17.13;;;8.77;;
64387;SDS011;50709;52.648;4.764;2023-12-04T12:39:01;13.32;;;7.70;;
64387;SDS011;50709;52.648;4.764;2023-12-04T12:41:29;10.68;;;6.55;;
64387;SDS011;50709;52.648;4.764;2023-12-04T12:43:55;10.60;;;6.72;;
64387;SDS011;50709;52.648;4.764;2023-12-04T12:46:21;10.02;;;6.05;;
64387;SDS011;50709;52.648;4.764;2023-12-04T12:48:47;11.85;;;7.88;;
64387;SDS011;50709;52.648;4.764;2023-12-04T12:51:12;12.65;;;7.10;;
64387;SDS011;50709;52.648;4.764;2023-12-04T12:53:38;11.15;;;6.88;;
64387;SDS011;50709;52.648;4.764;2023-12-04T12:56:04;13.40;;;7.60;;
64387;SDS011;50709;52.648;4.764;2023-12-04T12:58:30;12.63;;;7.90;;
64387;SDS011;50709;52.648;4.764;2023-12-04T13:00:56;14.35;;;7.57;;
64387;SDS011;50709;52.648;4.764;2023-12-04T13:03:21;12.75;;;8.05;;
64387;SDS011;50709;52.648;4.764;2023-12-04T13:05:47;5.45;;;3.78;;
64387;SDS011;50709;52.648;4.764;2023-12-04T13:08:12;12.02;;;7.30;;
64387;SDS011;50709;52.648;4.764;2023-12-04T13:10:38;11.07;;;7.75;;
64387;SDS011;50709;52.648;4.764;2023-12-04T13:13:09;12.13;;;7.40;;
64387;SDS011;50709;52.648;4.764;2023-12-04T13:15:38;12.70;;;7.82;;
64387;SDS011;50709;52.648;4.764;2023-12-04T13:18:03;11.35;;;6.53;;
64387;SDS011;50709;52.648;4.764;2023-12-04T13:20:29;11.65;;;6.80;;
64387;SDS011;50709;52.648;4.764;2023-12-04T13:22:54;11.05;;;7.35;;
64387;SDS011;50709;52.648;4.764;2023-12-04T13:25:20;12.77;;;7.25;;
64387;SDS011;50709;52.648;4.764;2023-12-04T13:27:45;12.23;;;7.65;;
64387;SDS011;50709;52.648;4.764;2023-12-04T13:30:11;12.10;;;7.95;;
64387;SDS011;50709;52.648;4.764;2023-12-04T13:32:39;13.45;;;7.25;;
64387;SDS011;50709;52.648;4.764;2023-12-04T13:35:05;12.77;;;7.78;;
64387;SDS011;50709;52.648;4.764;2023-12-04T13:37:34;12.55;;;7.97;;
64387;SDS011;50709;52.648;4.764;2023-12-04T13:40:02;13.27;;;7.82;;
64387;SDS011;50709;52.648;4.764;2023-12-04T13:42:37;14.30;;;8.45;;
64387;SDS011;50709;52.648;4.764;2023-12-04T13:45:22;12.63;;;8.13;;
64387;SDS011;50709;52.648;4.764;2023-12-04T13:47:47;12.95;;;7.40;;
64387;SDS011;50709;52.648;4.764;2023-12-04T13:50:13;15.68;;;8.35;;
64387;SDS011;50709;52.648;4.764;2023-12-04T13:52:39;13.27;;;7.80;;
64387;SDS011;50709;52.648;4.764;2023-12-04T13:55:07;13.60;;;7.35;;
64387;SDS011;50709;52.648;4.764;2023-12-04T13:57:44;13.40;;;7.60;;
64387;SDS011;50709;52.648;4.764;2023-12-04T14:00:25;14.05;;;8.02;;
64387;SDS011;50709;52.648;4.764;2023-12-04T14:02:51;14.30;;;8.57;;
64387;SDS011;50709;52.648;4.764;2023-12-04T14:05:19;13.90;;;8.68;;
64387;SDS011;50709;52.648;4.764;2023-12-04T14:07:47;12.77;;;7.65;;
64387;SDS011;50709;52.648;4.764;2023-12-04T14:10:12;12.85;;;8.10;;
64387;SDS011;50709;52.648;4.764;2023-12-04T14:12:39;14.98;;;8.68;;
64387;SDS011;50709;52.648;4.764;2023-12-04T14:15:05;13.60;;;8.43;;
64387;SDS011;50709;52.648;4.764;2023-12-04T14:17:31;14.50;;;8.65;;
64387;SDS011;50709;52.648;4.764;2023-12-04T14:19:56;12.93;;;7.88;;
64387;SDS011;50709;52.648;4.764;2023-12-04T14:22:22;11.38;;;7.47;;
64387;SDS011;50709;52.648;4.764;2023-12-04T14:24:47;14.63;;;7.90;;
64387;SDS011;50709;52.648;4.764;2023-12-04T14:27:13;13.88;;;8.45;;
64387;SDS011;50709;52.648;4.764;2023-12-04T14:29:39;13.40;;;8.57;;
64387;SDS011;50709;52.648;4.764;2023-12-04T14:32:08;14.30;;;9.68;;
64387;SDS011;50709;52.648;4.764;2023-12-04T14:34:33;16.15;;;8.75;;
64387;SDS011;50709;52.648;4.764;2023-12-04T14:36:59;14.32;;;7.43;;
64387;SDS011;50709;52.648;4.764;2023-12-04T14:39:24;13.55;;;8.15;;
64387;SDS011;50709;52.648;4.764;2023-12-04T14:41:49;14.45;;;8.48;;
64387;SDS011;50709;52.648;4.764;2023-12-04T14:44:16;13.85;;;8.18;;
64387;SDS011;50709;52.648;4.764;2023-12-04T14:46:41;15.45;;;10.02;;
64387;SDS011;50709;52.648;4.764;2023-12-04T14:49:07;13.68;;;8.48;;
64387;SDS011;50709;52.648;4.764;2023-12-04T14:51:32;13.23;;;8.35;;
64387;SDS011;50709;52.648;4.764;2023-12-04T14:53:57;16.75;;;9.85;;
64387;SDS011;50709;52.648;4.764;2023-12-04T14:56:52;13.30;;;8.30;;
64387;SDS011;50709;52.648;4.764;2023-12-04T14:59:33;12.93;;;8.40;;
64387;SDS011;50709;52.648;4.764;2023-12-04T15:02:01;13.90;;;8.18;;
64387;SDS011;50709;52.648;4.764;2023-12-04T15:04:27;13.50;;;8.65;;
64387;SDS011;50709;52.648;4.764;2023-12-04T15:07:11;14.20;;;8.55;;
64387;SDS011;50709;52.648;4.764;2023-12-04T15:09:45;13.38;;;8.52;;
64387;SDS011;50709;52.648;4.764;2023-12-04T15:12:13;13.70;;;9.45;;
64387;SDS011;50709;52.648;4.764;2023-12-04T15:15:00;13.35;;;7.32;;
64387;SDS011;50709;52.648;4.764;2023-12-04T15:17:35;13.82;;;8.52;;
64387;SDS011;50709;52.648;4.764;2023-12-04T15:20:13;12.32;;;7.53;;
64387;SDS011;50709;52.648;4.764;2023-12-04T15:22:58;14.40;;;9.07;;
64387;SDS011;50709;52.648;4.764;2023-12-04T15:25:23;12.38;;;7.80;;
64387;SDS011;50709;52.648;4.764;2023-12-04T15:27:51;12.40;;;8.40;;
64387;SDS011;50709;52.648;4.764;2023-12-04T15:30:17;13.82;;;7.22;;
64387;SDS011;50709;52.648;4.764;2023-12-04T15:32:42;12.50;;;8.60;;
64387;SDS011;50709;52.648;4.764;2023-12-04T15:35:11;13.50;;;8.25;;
64387;SDS011;50709;52.648;4.764;2023-12-04T15:37:37;11.85;;;7.68;;
64387;SDS011;50709;52.648;4.764;2023-12-04T15:40:02;12.98;;;7.80;;
64387;SDS011;50709;52.648;4.764;2023-12-04T15:42:29;11.90;;;7.85;;
64387;SDS011;50709;52.648;4.764;2023-12-04T15:44:56;12.57;;;7.53;;
64387;SDS011;50709;52.648;4.764;2023-12-04T15:47:21;13.70;;;8.63;;
64387;SDS011;50709;52.648;4.764;2023-12-04T15:49:47;13.85;;;8.23;;
64387;SDS011;50709;52.648;4.764;2023-12-04T15:52:13;12.43;;;7.45;;
64387;SDS011;50709;52.648;4.764;2023-12-04T15:54:38;13.20;;;7.60;;
64387;SDS011;50709;52.648;4.764;2023-12-04T15:57:04;13.35;;;7.05;;
64387;SDS011;50709;52.648;4.764;2023-12-04T15:59:30;10.95;;;6.25;;
64387;SDS011;50709;52.648;4.764;2023-12-04T16:01:56;14.65;;;7.45;;
64387;SDS011;50709;52.648;4.764;2023-12-04T16:04:21;13.18;;;7.70;;
64387;SDS011;50709;52.648;4.764;2023-12-04T16:06:47;13.25;;;7.70;;
64387;SDS011;50709;52.648;4.764;2023-12-04T16:09:13;12.35;;;6.65;;
64387;SDS011;50709;52.648;4.764;2023-12-04T16:11:39;10.63;;;7.22;;
64387;SDS011;50709;52.648;4.764;2023-12-04T16:14:05;11.63;;;7.00;;
64387;SDS011;50709;52.648;4.764;2023-12-04T16:16:31;11.32;;;7.93;;
64387;SDS011;50709;52.648;4.764;2023-12-04T16:18:56;13.60;;;8.57;;
64387;SDS011;50709;52.648;4.764;2023-12-04T16:21:22;12.88;;;7.95;;
64387;SDS011;50709;52.648;4.764;2023-12-04T16:23:47;12.32;;;7.97;;
64387;SDS011;50709;52.648;4.764;2023-12-04T16:26:13;10.65;;;7.22;;
64387;SDS011;50709;52.648;4.764;2023-12-04T16:28:38;14.20;;;7.43;;
64387;SDS011;50709;52.648;4.764;2023-12-04T16:31:04;13.35;;;8.18;;
64387;SDS011;50709;52.648;4.764;2023-12-04T16:33:30;11.73;;;7.78;;
64387;SDS011;50709;52.648;4.764;2023-12-04T16:35:56;12.10;;;7.97;;
64387;SDS011;50709;52.648;4.764;2023-12-04T16:38:22;13.20;;;7.80;;
64387;SDS011;50709;52.648;4.764;2023-12-04T16:40:47;12.70;;;8.35;;
64387;SDS011;50709;52.648;4.764;2023-12-04T16:43:13;12.68;;;8.13;;
64387;SDS011;50709;52.648;4.764;2023-12-04T16:45:38;12.63;;;8.15;;
64387;SDS011;50709;52.648;4.764;2023-12-04T16:48:04;11.65;;;7.43;;
64387;SDS011;50709;52.648;4.764;2023-12-04T16:50:29;11.20;;;7.75;;
64387;SDS011;50709;52.648;4.764;2023-12-04T16:52:56;12.85;;;7.97;;
64387;SDS011;50709;52.648;4.764;2023-12-04T16:55:22;11.55;;;7.20;;
64387;SDS011;50709;52.648;4.764;2023-12-04T16:57:47;12.25;;;7.97;;
64387;SDS011;50709;52.648;4.764;2023-12-04T17:00:13;12.20;;;7.53;;
64387;SDS011;50709;52.648;4.764;2023-12-04T17:02:38;13.38;;;9.25;;
64387;SDS011;50709;52.648;4.764;2023-12-04T17:05:04;13.05;;;7.47;;
64387;SDS011;50709;52.648;4.764;2023-12-04T17:07:30;12.98;;;7.63;;
64387;SDS011;50709;52.648;4.764;2023-12-04T17:09:55;15.05;;;9.88;;
64387;SDS011;50709;52.648;4.764;2023-12-04T17:12:21;13.02;;;7.80;;
64387;SDS011;50709;52.648;4.764;2023-12-04T17:14:46;10.57;;;6.90;;
64387;SDS011;50709;52.648;4.764;2023-12-04T17:17:11;12.68;;;7.45;;
64387;SDS011;50709;52.648;4.764;2023-12-04T17:19:37;11.55;;;7.22;;
64387;SDS011;50709;52.648;4.764;2023-12-04T17:22:02;14.20;;;8.18;;
64387;SDS011;50709;52.648;4.764;2023-12-04T17:24:28;12.75;;;8.48;;
64387;SDS011;50709;52.648;4.764;2023-12-04T17:26:53;15.07;;;9.10;;
64387;SDS011;50709;52.648;4.764;2023-12-04T17:29:19;12.32;;;7.28;;
64387;SDS011;50709;52.648;4.764;2023-12-04T17:31:44;12.07;;;6.93;;
64387;SDS011;50709;52.648;4.764;2023-12-04T17:34:10;12.25;;;6.75;;
64387;SDS011;50709;52.648;4.764;2023-12-04T17:36:35;11.40;;;6.82;;
64387;SDS011;50709;52.648;4.764;2023-12-04T17:39:01;13.27;;;7.03;;
64387;SDS011;50709;52.648;4.764;2023-12-04T17:41:28;10.18;;;6.82;;
64387;SDS011;50709;52.648;4.764;2023-12-04T17:43:54;13.52;;;8.40;;
64387;SDS011;50709;52.648;4.764;2023-12-04T17:46:19;13.13;;;7.32;;
64387;SDS011;50709;52.648;4.764;2023-12-04T17:48:44;12.32;;;7.80;;
64387;SDS011;50709;52.648;4.764;2023-12-04T17:51:15;13.80;;;9.18;;
64387;SDS011;50709;52.648;4.764;2023-12-04T17:53:41;14.30;;;8.15;;
64387;SDS011;50709;52.648;4.764;2023-12-04T17:56:07;12.13;;;7.18;;
64387;SDS011;50709;52.648;4.764;2023-12-04T17:58:33;12.95;;;8.23;;
64387;SDS011;50709;52.648;4.764;2023-12-04T18:00:59;14.35;;;7.85;;
64387;SDS011;50709;52.648;4.764;2023-12-04T18:03:25;12.13;;;8.30;;
64387;SDS011;50709;52.648;4.764;2023-12-04T18:05:50;11.98;;;7.25;;
64387;SDS011;50709;52.648;4.764;2023-12-04T18:08:16;13.35;;;8.77;;
64387;SDS011;50709;52.648;4.764;2023-12-04T18:10:41;13.00;;;8.02;;
64387;SDS011;50709;52.648;4.764;2023-12-04T18:13:07;14.63;;;8.82;;
64387;SDS011;50709;52.648;4.764;2023-12-04T18:15:32;13.32;;;8.55;;
64387;SDS011;50709;52.648;4.764;2023-12-04T18:17:57;13.38;;;9.68;;
64387;SDS011;50709;52.648;4.764;2023-12-04T18:20:23;13.45;;;8.65;;
64387;SDS011;50709;52.648;4.764;2023-12-04T18:22:48;12.55;;;8.43;;
64387;SDS011;50709;52.648;4.764;2023-12-04T18:25:17;15.48;;;10.27;;
64387;SDS011;50709;52.648;4.764;2023-12-04T18:27:42;12.75;;;8.70;;
64387;SDS011;50709;52.648;4.764;2023-12-04T18:30:08;14.05;;;9.55;;
64387;SDS011;50709;52.648;4.764;2023-12-04T18:32:34;13.95;;;7.90;;
64387;SDS011;50709;52.648;4.764;2023-12-04T18:35:00;13.27;;;8.20;;
64387;SDS011;50709;52.648;4.764;2023-12-04T18:37:35;14.95;;;8.60;;
64387;SDS011;50709;52.648;4.764;2023-12-04T18:40:04;12.73;;;7.60;;
64387;SDS011;50709;52.648;4.764;2023-12-04T18:42:32;14.00;;;8.88;;
64387;SDS011;50709;52.648;4.764;2023-12-04T18:44:58;14.05;;;9.88;;
64387;SDS011;50709;52.648;4.764;2023-12-04T18:47:23;14.13;;;8.35;;
64387;SDS011;50709;52.648;4.764;2023-12-04T18:49:50;14.45;;;9.02;;
64387;SDS011;50709;52.648;4.764;2023-12-04T18:52:19;14.00;;;9.10;;
64387;SDS011;50709;52.648;4.764;2023-12-04T18:54:44;13.10;;;8.35;;
64387;SDS011;50709;52.648;4.764;2023-12-04T18:57:11;14.20;;;9.20;;
64387;SDS011;50709;52.648;4.764;2023-12-04T18:59:37;13.73;;;8.85;;
64387;SDS011;50709;52.648;4.764;2023-12-04T19:02:02;14.25;;;9.95;;
64387;SDS011;50709;52.648;4.764;2023-12-04T19:04:28;13.50;;;9.00;;
64387;SDS011;50709;52.648;4.764;2023-12-04T19:06:53;15.38;;;9.45;;
64387;SDS011;50709;52.648;4.764;2023-12-04T19:09:19;12.93;;;8.85;;
64387;SDS011;50709;52.648;4.764;2023-12-04T19:11:44;14.98;;;9.45;;
64387;SDS011;50709;52.648;4.764;2023-12-04T19:14:09;14.65;;;10.02;;
64387;SDS011;50709;52.648;4.764;2023-12-04T19:16:35;17.00;;;12.00;;
64387;SDS011;50709;52.648;4.764;2023-12-04T19:19:00;16.70;;;10.20;;
64387;SDS011;50709;52.648;4.764;2023-12-04T19:21:26;16.83;;;9.75;;
64387;SDS011;50709;52.648;4.764;2023-12-04T19:23:51;14.57;;;9.70;;
64387;SDS011;50709;52.648;4.764;2023-12-04T19:26:16;15.35;;;9.55;;
64387;SDS011;50709;52.648;4.764;2023-12-04T19:28:42;15.88;;;10.45;;
64387;SDS011;50709;52.648;4.764;2023-12-04T19:31:09;13.95;;;9.23;;
64387;SDS011;50709;52.648;4.764;2023-12-04T19:33:35;15.82;;;9.38;;
64387;SDS011;50709;52.648;4.764;2023-12-04T19:36:03;16.38;;;11.43;;
64387;SDS011;50709;52.648;4.764;2023-12-04T19:38:30;17.15;;;11.18;;
64387;SDS011;50709;52.648;4.764;2023-12-04T19:40:55;17.52;;;11.10;;
64387;SDS011;50709;52.648;4.764;2023-12-04T19:43:21;17.10;;;10.73;;
64387;SDS011;50709;52.648;4.764;2023-12-04T19:45:46;17.20;;;11.63;;
64387;SDS011;50709;52.648;4.764;2023-12-04T19:48:12;14.98;;;11.32;;
64387;SDS011;50709;52.648;4.764;2023-12-04T19:50:37;17.77;;;11.43;;
64387;SDS011;50709;52.648;4.764;2023-12-04T19:53:04;18.30;;;11.70;;
64387;SDS011;50709;52.648;4.764;2023-12-04T19:55:29;20.73;;;12.63;;
64387;SDS011;50709;52.648;4.764;2023-12-04T19:57:54;16.05;;;9.95;;
64387;SDS011;50709;52.648;4.764;2023-12-04T20:00:20;18.45;;;12.18;;
64387;SDS011;50709;52.648;4.764;2023-12-04T20:02:45;16.73;;;11.32;;
64387;SDS011;50709;52.648;4.764;2023-12-04T20:05:11;17.27;;;11.43;;
64387;SDS011;50709;52.648;4.764;2023-12-04T20:07:38;16.77;;;13.00;;
64387;SDS011;50709;52.648;4.764;2023-12-04T20:10:04;16.42;;;9.80;;
64387;SDS011;50709;52.648;4.764;2023-12-04T20:12:31;17.23;;;11.45;;
64387;SDS011;50709;52.648;4.764;2023-12-04T20:14:56;17.40;;;13.02;;
64387;SDS011;50709;52.648;4.764;2023-12-04T20:17:23;15.43;;;10.32;;
64387;SDS011;50709;52.648;4.764;2023-12-04T20:19:49;16.88;;;9.98;;
64387;SDS011;50709;52.648;4.764;2023-12-04T20:22:14;16.45;;;9.40;;
64387;SDS011;50709;52.648;4.764;2023-12-04T20:24:41;18.05;;;12.02;;
64387;SDS011;50709;52.648;4.764;2023-12-04T20:27:10;13.73;;;9.50;;
64387;SDS011;50709;52.648;4.764;2023-12-04T20:29:35;16.05;;;10.38;;
64387;SDS011;50709;52.648;4.764;2023-12-04T20:32:01;16.52;;;9.18;;
64387;SDS011;50709;52.648;4.764;2023-12-04T20:34:26;18.05;;;11.50;;
64387;SDS011;50709;52.648;4.764;2023-12-04T20:36:52;18.88;;;13.13;;
64387;SDS011;50709;52.648;4.764;2023-12-04T20:39:20;15.57;;;10.40;;
64387;SDS011;50709;52.648;4.764;2023-12-04T20:41:46;16.42;;;10.85;;
64387;SDS011;50709;52.648;4.764;2023-12-04T20:44:11;17.23;;;12.10;;
64387;SDS011;50709;52.648;4.764;2023-12-04T20:46:37;12.77;;;8.40;;
64387;SDS011;50709;52.648;4.764;2023-12-04T20:49:02;16.60;;;11.88;;
64387;SDS011;50709;52.648;4.764;2023-12-04T20:51:28;19.20;;;12.50;;
64387;SDS011;50709;52.648;4.764;2023-12-04T20:53:55;15.68;;;10.30;;
64387;SDS011;50709;52.648;4.764;2023-12-04T20:56:20;19.98;;;10.43;;
64387;SDS011;50709;52.648;4.764;2023-12-04T20:58:46;16.10;;;11.23;;
64387;SDS011;50709;52.648;4.764;2023-12-04T21:01:15;17.10;;;11.25;;
64387;SDS011;50709;52.648;4.764;2023-12-04T21:03:41;16.27;;;10.43;;
64387;SDS011;50709;52.648;4.764;2023-12-04T21:06:07;15.07;;;10.07;;
64387;SDS011;50709;52.648;4.764;2023-12-04T21:08:33;16.25;;;10.52;;
64387;SDS011;50709;52.648;4.764;2023-12-04T21:10:58;15.77;;;9.48;;
64387;SDS011;50709;52.648;4.764;2023-12-04T21:13:24;15.02;;;10.93;;
64387;SDS011;50709;52.648;4.764;2023-12-04T21:15:49;13.98;;;9.27;;
64387;SDS011;50709;52.648;4.764;2023-12-04T21:18:15;14.55;;;10.38;;
64387;SDS011;50709;52.648;4.764;2023-12-04T21:20:40;14.20;;;9.00;;
64387;SDS011;50709;52.648;4.764;2023-12-04T21:23:06;14.85;;;12.43;;
64387;SDS011;50709;52.648;4.764;2023-12-04T21:25:35;16.30;;;11.10;;
64387;SDS011;50709;52.648;4.764;2023-12-04T21:28:00;15.35;;;9.05;;
64387;SDS011;50709;52.648;4.764;2023-12-04T21:30:26;16.25;;;10.48;;
64387;SDS011;50709;52.648;4.764;2023-12-04T21:32:51;15.65;;;11.68;;
64387;SDS011;50709;52.648;4.764;2023-12-04T21:35:16;14.80;;;9.88;;
64387;SDS011;50709;52.648;4.764;2023-12-04T21:37:42;14.85;;;8.82;;
64387;SDS011;50709;52.648;4.764;2023-12-04T21:40:08;16.88;;;12.75;;
64387;SDS011;50709;52.648;4.764;2023-12-04T21:42:34;15.02;;;9.27;;
64387;SDS011;50709;52.648;4.764;2023-12-04T21:45:00;17.13;;;11.05;;
64387;SDS011;50709;52.648;4.764;2023-12-04T21:47:25;15.63;;;9.98;;
64387;SDS011;50709;52.648;4.764;2023-12-04T21:49:51;13.80;;;8.23;;
64387;SDS011;50709;52.648;4.764;2023-12-04T21:52:16;16.60;;;11.65;;
64387;SDS011;50709;52.648;4.764;2023-12-04T21:54:42;15.43;;;10.40;;
64387;SDS011;50709;52.648;4.764;2023-12-04T21:57:08;12.32;;;8.30;;
64387;SDS011;50709;52.648;4.764;2023-12-04T21:59:34;15.95;;;10.68;;
64387;SDS011;50709;52.648;4.764;2023-12-04T22:01:59;17.10;;;10.80;;
64387;SDS011;50709;52.648;4.764;2023-12-04T22:04:24;16.70;;;11.65;;
64387;SDS011;50709;52.648;4.764;2023-12-04T22:06:50;13.73;;;8.95;;
64387;SDS011;50709;52.648;4.764;2023-12-04T22:09:15;16.00;;;10.13;;
64387;SDS011;50709;52.648;4.764;2023-12-04T22:11:40;16.77;;;10.98;;
64387;SDS011;50709;52.648;4.764;2023-12-04T22:14:06;16.70;;;9.85;;
64387;SDS011;50709;52.648;4.764;2023-12-04T22:16:31;19.88;;;12.57;;
64387;SDS011;50709;52.648;4.764;2023-12-04T22:18:57;16.45;;;9.95;;
64387;SDS011;50709;52.648;4.764;2023-12-04T22:21:22;16.48;;;10.70;;
64387;SDS011;50709;52.648;4.764;2023-12-04T22:23:47;15.50;;;10.30;;
64387;SDS011;50709;52.648;4.764;2023-12-04T22:26:13;16.10;;;11.68;;
64387;SDS011;50709;52.648;4.764;2023-12-04T22:28:38;14.13;;;8.90;;
64387;SDS011;50709;52.648;4.764;2023-12-04T22:31:04;15.27;;;10.07;;
64387;SDS011;50709;52.648;4.764;2023-12-04T22:33:29;12.70;;;8.63;;
64387;SDS011;50709;52.648;4.764;2023-12-04T22:35:56;15.68;;;10.15;;
64387;SDS011;50709;52.648;4.764;2023-12-04T22:38:22;14.95;;;9.75;;
64387;SDS011;50709;52.648;4.764;2023-12-04T22:40:47;14.73;;;8.98;;
64387;SDS011;50709;52.648;4.764;2023-12-04T22:43:13;15.93;;;10.18;;
64387;SDS011;50709;52.648;4.764;2023-12-04T22:45:39;15.02;;;9.30;;
64387;SDS011;50709;52.648;4.764;2023-12-04T22:48:04;14.93;;;10.30;;
64387;SDS011;50709;52.648;4.764;2023-12-04T22:50:30;13.60;;;8.60;;
64387;SDS011;50709;52.648;4.764;2023-12-04T22:52:55;15.15;;;12.60;;
64387;SDS011;50709;52.648;4.764;2023-12-04T22:55:21;15.52;;;10.63;;
64387;SDS011;50709;52.648;4.764;2023-12-04T22:57:46;15.80;;;9.75;;
64387;SDS011;50709;52.648;4.764;2023-12-04T23:00:11;15.93;;;10.48;;
64387;SDS011;50709;52.648;4.764;2023-12-04T23:02:38;14.85;;;8.75;;
64387;SDS011;50709;52.648;4.764;2023-12-04T23:05:04;15.38;;;10.10;;
64387;SDS011;50709;52.648;4.764;2023-12-04T23:07:30;16.48;;;10.05;;
64387;SDS011;50709;52.648;4.764;2023-12-04T23:09:55;17.52;;;11.55;;
64387;SDS011;50709;52.648;4.764;2023-12-04T23:12:21;15.48;;;9.63;;
64387;SDS011;50709;52.648;4.764;2023-12-04T23:14:46;16.20;;;10.63;;
64387;SDS011;50709;52.648;4.764;2023-12-04T23:17:11;13.38;;;8.82;;
64387;SDS011;50709;52.648;4.764;2023-12-04T23:19:37;17.10;;;10.05;;
64387;SDS011;50709;52.648;4.764;2023-12-04T23:22:02;16.65;;;11.45;;
64387;SDS011;50709;52.648;4.764;2023-12-04T23:24:28;16.70;;;11.00;;
64387;SDS011;50709;52.648;4.764;2023-12-04T23:26:53;17.27;;;11.13;;
64387;SDS011;50709;52.648;4.764;2023-12-04T23:29:18;16.15;;;10.32;;
64387;SDS011;50709;52.648;4.764;2023-12-04T23:31:44;15.27;;;9.18;;
64387;SDS011;50709;52.648;4.764;2023-12-04T23:34:10;17.88;;;10.90;;
64387;SDS011;50709;52.648;4.764;2023-12-04T23:36:35;17.20;;;12.32;;
64387;SDS011;50709;52.648;4.764;2023-12-04T23:39:00;16.08;;;10.30;;
64387;SDS011;50709;52.648;4.764;2023-12-04T23:41:27;15.93;;;9.52;;
64387;SDS011;50709;52.648;4.764;2023-12-04T23:43:53;16.92;;;10.30;;
64387;SDS011;50709;52.648;4.764;2023-12-04T23:46:18;17.00;;;12.05;;
64387;SDS011;50709;52.648;4.764;2023-12-04T23:48:43;18.02;;;10.55;;
64387;SDS011;50709;52.648;4.764;2023-12-04T23:51:09;16.80;;;11.43;;
64387;SDS011;50709;52.648;4.764;2023-12-04T23:53:34;12.50;;;8.98;;
64387;SDS011;50709;52.648;4.764;2023-12-04T23:56:00;12.60;;;8.50;;
64387;SDS011;50709;52.648;4.764;2023-12-04T23:58:25;20.10;;;13.45;;
